Time;durP1;ratioP1;P1;durP2;ratioP2;P2;SDS_P1;SDS_P2;PMS_P1;PMS_P2;Temp;Humidity;BMP_temperature;BMP_pressure;BME280_temperature;BME280_humidity;BME280_pressure;Samples;Min_cycle;Max_cycle;Signal;HPM_P1;HPM_P2
2023/10/23 00:01:01;;;;;;;;;;;;;;;20.77;41.49;100768.85;103048;1290;62531;-82
2023/10/23 00:03:27;;;;;;;;;;;;;;;20.77;41.72;100768.11;103216;1291;61381;-81
2023/10/23 00:05:52;;;;;;;;;;;;;;;20.77;41.47;100769.55;103099;1290;61378;-80
2023/10/23 00:08:18;;;;;;;;;;;;;;;20.77;41.64;100768.83;103091;1288;72547;-81
2023/10/23 00:10:46;;;;;;;;;;;;;;;20.77;41.49;100767.04;102848;1289;61489;-80
2023/10/23 00:13:12;;;;;;;;;;;;;;;20.76;41.42;100767.80;102924;1296;61347;-80
2023/10/23 00:15:38;;;;;;;;;;;;;;;20.77;41.55;100764.22;103122;1291;62405;-82
2023/10/23 00:18:04;;;;;;;;;;;;;;;20.76;41.62;100767.11;102771;1290;61276;-81
2023/10/23 00:20:29;;;;;;;;;;;;;;;20.77;41.70;100763.48;102989;1293;61413;-81
2023/10/23 00:22:55;;;;;;;;;;;;;;;20.76;41.61;100765.33;102821;1294;61597;-81
2023/10/23 00:25:20;;;;;;;;;;;;;;;20.76;41.60;100769.78;102908;1294;62457;-81
2023/10/23 00:27:46;;;;;;;;;;;;;;;20.76;41.62;100768.54;102846;1293;61526;-82
2023/10/23 00:30:11;;;;;;;;;;;;;;;20.76;41.67;100769.27;102887;1288;61436;-81
2023/10/23 00:32:37;;;;;;;;;;;;;;;20.76;41.63;100769.06;103122;1293;61484;-83
2023/10/23 00:35:05;;;;;;;;;;;;;;;20.76;41.71;100768.02;102887;1294;62374;-81
2023/10/23 00:37:30;;;;;;;;;;;;;;;20.76;41.63;100768.89;102875;1292;61494;-80
2023/10/23 00:39:55;;;;;;;;;;;;;;;20.76;41.72;100772.48;102839;1291;62639;-80
2023/10/23 00:42:21;;;;;;;;;;;;;;;20.76;41.65;100775.52;102813;1293;61448;-82
2023/10/23 00:44:46;;;;;;;;;;;;;;;20.76;41.59;100771.60;103184;1288;62705;-81
2023/10/23 00:47:35;;;;;;;;;;;;;;;20.76;41.72;100773.02;103190;1292;62062;-81
2023/10/23 00:50:03;;;;;;;;;;;;;;;20.76;41.67;100773.90;102584;1294;61759;-82
2023/10/23 00:52:29;;;;;;;;;;;;;;;20.76;41.64;100770.48;102861;1294;72669;-80
2023/10/23 00:54:55;;;;;;;;;;;;;;;20.76;41.64;100769.07;102616;1293;61308;-81
2023/10/23 00:57:21;;;;;;;;;;;;;;;20.76;41.65;100770.52;102601;1293;61341;-81
2023/10/23 01:00:12;;;;;;;;;;;;;;;20.76;41.81;100767.48;102655;1294;61414;-82
2023/10/23 01:02:38;;;;;;;;;;;;;;;20.76;41.77;100769.08;102231;1302;72542;-81
2023/10/23 01:05:04;;;;;;;;;;;;;;;20.76;41.83;100768.90;102292;1302;61440;-81
2023/10/23 01:07:30;;;;;;;;;;;;;;;20.76;41.83;100770.52;102180;1300;61384;-79
2023/10/23 01:09:55;;;;;;;;;;;;;;;20.76;41.74;100771.75;102341;1300;61344;-82
2023/10/23 01:12:21;;;;;;;;;;;;;;;20.76;41.79;100775.19;102431;1299;61483;-80
2023/10/23 01:14:46;;;;;;;;;;;;;;;20.76;41.88;100776.91;102289;1299;72437;-81
2023/10/23 01:17:12;;;;;;;;;;;;;;;20.76;41.85;100777.66;102147;1300;61533;-81
2023/10/23 01:19:37;;;;;;;;;;;;;;;20.76;41.90;100776.05;102222;1302;61399;-82
2023/10/23 01:22:03;;;;;;;;;;;;;;;20.76;41.92;100778.20;102222;1300;61614;-82
2023/10/23 01:24:28;;;;;;;;;;;;;;;20.75;41.85;100777.52;102259;1300;61692;-81
2023/10/23 01:26:55;;;;;;;;;;;;;;;20.76;41.84;100778.23;102331;1297;72619;-82
2023/10/23 01:29:21;;;;;;;;;;;;;;;20.76;41.78;100777.67;102541;1294;75365;-80
2023/10/23 01:31:48;;;;;;;;;;;;;;;20.76;41.61;100773.73;102656;1297;62051;-81
2023/10/23 01:34:14;;;;;;;;;;;;;;;20.75;41.87;100775.73;102649;1296;63273;-81
2023/10/23 01:36:39;;;;;;;;;;;;;;;20.75;41.87;100775.21;102567;1299;61499;-81
2023/10/23 01:39:05;;;;;;;;;;;;;;;20.75;41.84;100774.33;102631;1299;61412;-82
2023/10/23 01:41:30;;;;;;;;;;;;;;;20.76;41.82;100778.39;103104;1288;61471;-81
2023/10/23 01:43:56;;;;;;;;;;;;;;;20.75;41.78;100777.02;103267;1289;61388;-81
2023/10/23 01:46:21;;;;;;;;;;;;;;;20.75;41.89;100772.70;103172;1290;62429;-81
2023/10/23 01:48:47;;;;;;;;;;;;;;;20.76;41.87;100770.55;103213;1287;61428;-82
2023/10/23 01:51:13;;;;;;;;;;;;;;;20.75;41.86;100771.10;103132;1289;62658;-82
2023/10/23 01:53:38;;;;;;;;;;;;;;;20.75;41.79;100769.50;103022;1290;61887;-80
2023/10/23 01:56:05;;;;;;;;;;;;;;;20.75;41.87;100774.33;103208;1293;61398;-82
2023/10/23 01:58:31;;;;;;;;;;;;;;;20.76;41.82;100775.02;102989;1288;61302;-81
2023/10/23 02:00:56;;;;;;;;;;;;;;;20.75;41.98;100770.20;103211;1291;61398;-80
2023/10/23 02:03:22;;;;;;;;;;;;;;;20.75;41.84;100774.02;103094;1291;61380;-82
2023/10/23 02:05:48;;;;;;;;;;;;;;;20.75;41.75;100772.35;103075;1288;62361;-81
2023/10/23 02:08:16;;;;;;;;;;;;;;;20.75;41.81;100772.91;103129;1292;61374;-81
2023/10/23 02:10:42;;;;;;;;;;;;;;;20.74;41.93;100770.81;103223;1290;61312;-82
2023/10/23 02:13:08;;;;;;;;;;;;;;;20.75;41.73;100774.72;102985;1290;62469;-80
2023/10/23 02:15:34;;;;;;;;;;;;;;;20.75;41.74;100778.11;103402;1292;61968;-80
2023/10/23 02:17:59;;;;;;;;;;;;;;;20.75;41.88;100786.16;103250;1288;62041;-82
2023/10/23 02:20:27;;;;;;;;;;;;;;;20.75;41.78;100794.94;103044;1288;61322;-83
2023/10/23 02:22:56;;;;;;;;;;;;;;;20.75;41.82;100799.58;103002;1287;71621;-80
2023/10/23 02:25:22;;;;;;;;;;;;;;;20.75;41.88;100804.23;103294;1288;74269;-80
2023/10/23 02:27:48;;;;;;;;;;;;;;;20.75;41.87;100809.08;103187;1291;61350;-81
2023/10/23 02:30:13;;;;;;;;;;;;;;;20.74;41.92;100811.22;103093;1288;61380;-80
2023/10/23 02:32:39;;;;;;;;;;;;;;;20.75;41.81;100816.23;103131;1293;61498;-81
2023/10/23 02:35:05;;;;;;;;;;;;;;;20.75;42.00;100816.77;102924;1288;61882;-82
2023/10/23 02:37:30;;;;;;;;;;;;;;;20.75;42.02;100818.89;103235;1293;62555;-81
2023/10/23 02:39:56;;;;;;;;;;;;;;;20.75;41.88;100821.59;103222;1287;61386;-82
2023/10/23 02:42:23;;;;;;;;;;;;;;;20.75;41.81;100819.59;102999;1291;61769;-81
2023/10/23 02:44:48;;;;;;;;;;;;;;;20.75;41.95;100814.95;103275;1292;61476;-81
2023/10/23 02:47:14;;;;;;;;;;;;;;;20.75;41.93;100816.94;103109;1288;61398;-82
2023/10/23 02:49:39;;;;;;;;;;;;;;;20.74;41.88;100817.52;103036;1288;61398;-81
2023/10/23 02:52:05;;;;;;;;;;;;;;;20.74;41.90;100820.70;103213;1288;61408;-81
2023/10/23 02:54:30;;;;;;;;;;;;;;;20.74;41.87;100821.27;103137;1288;61427;-80
2023/10/23 02:56:55;;;;;;;;;;;;;;;20.74;42.04;100820.19;102934;1293;62165;-81
2023/10/23 02:59:21;;;;;;;;;;;;;;;20.74;41.90;100819.63;102967;1288;62006;-81
2023/10/23 03:01:47;;;;;;;;;;;;;;;20.74;42.00;100819.10;103032;1290;61322;-81
2023/10/23 03:04:12;;;;;;;;;;;;;;;20.74;41.91;100822.71;103137;1289;62899;-81
2023/10/23 03:06:38;;;;;;;;;;;;;;;20.74;41.93;100820.90;103142;1288;62263;-81
2023/10/23 03:09:04;;;;;;;;;;;;;;;20.74;41.90;100817.68;103220;1288;61585;-82
2023/10/23 03:11:31;;;;;;;;;;;;;;;20.74;42.03;100815.73;103236;1288;61385;-81
2023/10/23 03:13:56;;;;;;;;;;;;;;;20.74;41.97;100813.95;103116;1289;61556;-81
2023/10/23 03:16:24;;;;;;;;;;;;;;;20.74;41.90;100820.22;103181;1291;61465;-81
2023/10/23 03:18:50;;;;;;;;;;;;;;;20.74;41.97;100818.80;103083;1292;72506;-81
2023/10/23 03:21:16;;;;;;;;;;;;;;;20.73;41.91;100818.80;103196;1292;61427;-81
2023/10/23 03:23:43;;;;;;;;;;;;;;;20.73;42.11;100820.79;103120;1288;61455;-81
2023/10/23 03:26:09;;;;;;;;;;;;;;;20.72;41.95;100816.78;103033;1292;61394;-81
2023/10/23 03:28:35;;;;;;;;;;;;;;;20.69;42.19;100817.13;102993;1288;62086;-80
2023/10/23 03:31:01;;;;;;;;;;;;;;;20.67;42.10;100819.62;103293;1292;61468;-81
2023/10/23 03:33:27;;;;;;;;;;;;;;;20.64;42.15;100822.29;103062;1293;61364;-80
2023/10/23 03:35:53;;;;;;;;;;;;;;;20.62;42.16;100817.98;103049;1293;62655;-81
2023/10/23 03:38:20;;;;;;;;;;;;;;;20.59;42.28;100814.05;103109;1292;62577;-82
2023/10/23 03:40:58;;;;;;;;;;;;;;;20.56;42.29;100816.42;103264;1288;72234;-82
2023/10/23 03:43:23;;;;;;;;;;;;;;;20.52;42.40;100817.59;103104;1289;74546;-84
2023/10/23 03:45:50;;;;;;;;;;;;;;;20.49;42.63;100817.43;103311;1288;62174;-82
2023/10/23 03:48:15;;;;;;;;;;;;;;;20.46;42.77;100814.26;103093;1288;61339;-82
2023/10/23 03:50:41;;;;;;;;;;;;;;;20.43;43.01;100815.14;103281;1288;61417;-82
2023/10/23 03:53:06;;;;;;;;;;;;;;;20.40;43.43;100818.89;103119;1288;61416;-83
2023/10/23 03:55:36;;;;;;;;;;;;;;;20.39;43.47;100820.23;103436;1288;61395;-82
2023/10/23 03:58:01;;;;;;;;;;;;;;;20.37;43.71;100818.74;103232;1288;61411;-85
2023/10/23 04:00:27;;;;;;;;;;;;;;;20.36;43.80;100815.61;103219;1288;61789;-82
2023/10/23 04:02:52;;;;;;;;;;;;;;;20.35;44.03;100818.00;102992;1288;61893;-82
2023/10/23 04:05:18;;;;;;;;;;;;;;;20.34;44.04;100814.50;103288;1289;61511;-82
2023/10/23 04:07:43;;;;;;;;;;;;;;;20.33;44.02;100817.08;103086;1288;62437;-82
2023/10/23 04:10:09;;;;;;;;;;;;;;;20.32;44.02;100816.45;103128;1288;61495;-82
2023/10/23 04:12:34;;;;;;;;;;;;;;;20.31;43.99;100818.09;103283;1291;63011;-82
2023/10/23 04:15:00;;;;;;;;;;;;;;;20.29;44.05;100815.55;103311;1288;61374;-82
2023/10/23 04:17:25;;;;;;;;;;;;;;;20.28;44.02;100814.56;102900;1293;61411;-81
2023/10/23 04:19:51;;;;;;;;;;;;;;;20.27;44.09;100822.48;103154;1288;62528;-82
2023/10/23 04:22:16;;;;;;;;;;;;;;;20.25;44.07;100824.34;103248;1288;61359;-83
2023/10/23 04:24:42;;;;;;;;;;;;;;;20.24;43.90;100822.98;103277;1288;61760;-82
2023/10/23 04:27:07;;;;;;;;;;;;;;;20.24;43.93;100823.39;103211;1288;61396;-82
2023/10/23 04:29:33;;;;;;;;;;;;;;;20.23;44.07;100818.63;103262;1293;61381;-81
2023/10/23 04:31:58;;;;;;;;;;;;;;;20.21;43.98;100820.17;103252;1291;61408;-82
2023/10/23 04:34:24;;;;;;;;;;;;;;;20.20;43.99;100817.41;103150;1291;61853;-84
2023/10/23 04:36:49;;;;;;;;;;;;;;;20.20;44.14;100816.84;103292;1288;62547;-83
2023/10/23 04:39:16;;;;;;;;;;;;;;;20.22;43.96;100817.80;103342;1288;61788;-82
2023/10/23 04:42:04;;;;;;;;;;;;;;;20.24;43.93;100818.17;103399;1288;62668;-82
2023/10/23 04:44:30;;;;;;;;;;;;;;;20.27;43.84;100819.81;103121;1293;61278;-81
2023/10/23 04:46:55;;;;;;;;;;;;;;;20.29;43.80;100824.14;103076;1293;61561;-84
2023/10/23 04:49:21;;;;;;;;;;;;;;;20.31;43.71;100824.91;103119;1293;61450;-82
2023/10/23 04:51:46;;;;;;;;;;;;;;;20.32;43.64;100825.73;103270;1294;62333;-82
2023/10/23 04:54:12;;;;;;;;;;;;;;;20.33;43.70;100831.22;103453;1294;61434;-82
2023/10/23 04:56:39;;;;;;;;;;;;;;;20.34;43.68;100834.71;103080;1299;61380;-81
2023/10/23 04:59:04;;;;;;;;;;;;;;;20.34;43.51;100837.19;103169;1297;61378;-82
2023/10/23 05:01:32;;;;;;;;;;;;;;;20.35;43.70;100838.90;103375;1294;61570;-82
2023/10/23 05:03:57;;;;;;;;;;;;;;;20.37;43.78;100841.67;103295;1298;74486;-82
2023/10/23 05:06:25;;;;;;;;;;;;;;;20.37;43.72;100844.68;103414;1294;61338;-82
2023/10/23 05:08:51;;;;;;;;;;;;;;;20.38;43.77;100848.34;103250;1293;61281;-82
2023/10/23 05:11:16;;;;;;;;;;;;;;;20.39;43.57;100847.02;103266;1294;61384;-82
2023/10/23 05:13:42;;;;;;;;;;;;;;;20.41;43.63;100850.87;103253;1294;61425;-82
2023/10/23 05:16:07;;;;;;;;;;;;;;;20.41;43.50;100852.61;103135;1294;61292;-83
2023/10/23 05:18:33;;;;;;;;;;;;;;;20.41;43.53;100856.41;103415;1294;61346;-82
2023/10/23 05:20:58;;;;;;;;;;;;;;;20.41;43.55;100857.64;103415;1294;61381;-81
2023/10/23 05:23:25;;;;;;;;;;;;;;;20.40;43.39;100855.35;103613;1288;61359;-81
2023/10/23 05:25:50;;;;;;;;;;;;;;;20.41;43.49;100860.52;103870;1288;61373;-82
2023/10/23 05:28:15;;;;;;;;;;;;;;;20.41;43.42;100873.75;103902;1287;61293;-83
2023/10/23 05:30:41;;;;;;;;;;;;;;;20.40;43.40;100881.45;103977;1288;61348;-82
2023/10/23 05:33:07;;;;;;;;;;;;;;;20.40;43.47;100882.52;104323;1287;61386;-82
2023/10/23 05:35:33;;;;;;;;;;;;;;;20.41;43.54;100885.34;104093;1290;73403;-82
2023/10/23 05:37:58;;;;;;;;;;;;;;;20.42;43.55;100892.10;103924;1287;61388;-81
2023/10/23 05:40:24;;;;;;;;;;;;;;;20.41;43.43;100895.67;103875;1288;61405;-81
2023/10/23 05:42:49;;;;;;;;;;;;;;;20.40;43.49;100898.44;104037;1288;61299;-82
2023/10/23 05:45:14;;;;;;;;;;;;;;;20.40;43.60;100899.50;104105;1287;61335;-81
2023/10/23 05:47:40;;;;;;;;;;;;;;;20.40;43.33;100898.98;104191;1287;72437;-81
2023/10/23 05:50:06;;;;;;;;;;;;;;;20.40;43.35;100900.27;104157;1292;61483;-82
2023/10/23 05:52:32;;;;;;;;;;;;;;;20.38;43.48;100904.48;104280;1288;61765;-81
2023/10/23 05:54:57;;;;;;;;;;;;;;;20.35;43.42;100909.68;104312;1287;61334;-82
2023/10/23 05:57:22;;;;;;;;;;;;;;;20.31;43.56;100913.18;104463;1288;61257;-82
2023/10/23 05:59:48;;;;;;;;;;;;;;;20.31;43.57;100914.46;104022;1290;63449;-81
2023/10/23 06:02:13;;;;;;;;;;;;;;;20.31;43.57;100908.36;104063;1288;61276;-82
2023/10/23 06:04:41;;;;;;;;;;;;;;;20.32;43.58;100910.61;104081;1290;60854;-82
2023/10/23 06:07:07;;;;;;;;;;;;;;;20.32;43.44;100911.00;104591;1286;61347;-80
2023/10/23 06:09:32;;;;;;;;;;;;;;;20.33;43.48;100915.73;104610;1287;59966;-81
2023/10/23 06:11:58;;;;;;;;;;;;;;;20.34;43.61;100917.64;104652;1291;61313;-80
2023/10/23 06:14:23;;;;;;;;;;;;;;;20.36;43.49;100920.02;104673;1286;61343;-80
2023/10/23 06:16:50;;;;;;;;;;;;;;;20.37;43.55;100922.59;104480;1288;61493;-80
2023/10/23 06:19:16;;;;;;;;;;;;;;;20.38;43.62;100922.01;104614;1288;60217;-80
2023/10/23 06:21:41;;;;;;;;;;;;;;;20.40;43.57;100920.98;104387;1288;61397;-80
2023/10/23 06:24:06;;;;;;;;;;;;;;;20.41;43.65;100919.66;104478;1286;61432;-80
2023/10/23 06:26:33;;;;;;;;;;;;;;;20.41;43.51;100918.75;104539;1286;61318;-80
2023/10/23 06:28:59;;;;;;;;;;;;;;;20.42;43.53;100919.05;104556;1290;61300;-80
2023/10/23 06:31:25;;;;;;;;;;;;;;;20.42;43.50;100917.45;104583;1290;61294;-80
2023/10/23 06:33:52;;;;;;;;;;;;;;;20.43;43.67;100918.13;104795;1288;61412;-80
2023/10/23 06:36:17;;;;;;;;;;;;;;;20.43;43.60;100917.54;104654;1286;74423;-80
2023/10/23 06:38:43;;;;;;;;;;;;;;;20.44;43.57;100920.36;104833;1286;60079;-80
2023/10/23 06:41:09;;;;;;;;;;;;;;;20.44;43.39;100923.38;104867;1286;61204;-80
2023/10/23 06:43:35;;;;;;;;;;;;;;;20.45;43.53;100928.36;104812;1286;61333;-80
2023/10/23 06:46:01;;;;;;;;;;;;;;;20.46;43.44;100927.02;104898;1288;61340;-80
2023/10/23 06:48:26;;;;;;;;;;;;;;;20.47;43.57;100933.77;104894;1288;61509;-81
2023/10/23 06:50:52;;;;;;;;;;;;;;;20.46;43.60;100927.39;104888;1286;61336;-81
2023/10/23 06:53:17;;;;;;;;;;;;;;;20.43;43.46;100932.95;104876;1289;61278;-80
2023/10/23 06:55:48;;;;;;;;;;;;;;;20.41;43.50;100934.30;104445;1292;61386;-80
2023/10/23 06:58:14;;;;;;;;;;;;;;;20.40;43.62;100936.91;104500;1288;77360;-80
2023/10/23 07:00:39;;;;;;;;;;;;;;;20.39;43.62;100941.94;104421;1286;60211;-80
2023/10/23 07:03:05;;;;;;;;;;;;;;;20.40;43.64;100948.86;104864;1290;61723;-80
2023/10/23 07:05:30;;;;;;;;;;;;;;;20.41;43.66;100951.69;104832;1288;61369;-80
2023/10/23 07:07:56;;;;;;;;;;;;;;;20.40;43.59;100952.42;104632;1286;59374;-80
2023/10/23 07:10:21;;;;;;;;;;;;;;;20.40;43.66;100953.86;104943;1287;74671;-80
2023/10/23 07:12:47;;;;;;;;;;;;;;;20.40;43.51;100953.36;104802;1286;60159;-80
2023/10/23 07:15:12;;;;;;;;;;;;;;;20.39;43.77;100953.41;104649;1286;61347;-80
2023/10/23 07:17:38;;;;;;;;;;;;;;;20.40;43.66;100963.91;104510;1288;61447;-80
2023/10/23 07:20:06;;;;;;;;;;;;;;;20.40;43.69;100958.30;104523;1288;62383;-80
2023/10/23 07:22:32;;;;;;;;;;;;;;;20.42;43.65;100959.09;104666;1290;75323;-80
2023/10/23 07:24:59;;;;;;;;;;;;;;;20.43;43.63;100956.52;104439;1286;61446;-80
2023/10/23 07:27:25;;;;;;;;;;;;;;;20.44;43.72;100955.20;104429;1286;61375;-80
2023/10/23 07:29:52;;;;;;;;;;;;;;;20.45;43.63;100951.43;104572;1291;61480;-80
2023/10/23 07:32:18;;;;;;;;;;;;;;;20.46;43.71;100956.55;104679;1287;75184;-82
2023/10/23 07:34:44;;;;;;;;;;;;;;;20.46;43.66;100961.52;105070;1288;59695;-80
2023/10/23 07:37:11;;;;;;;;;;;;;;;20.47;43.84;100964.54;105313;1288;61245;-80
2023/10/23 07:39:37;;;;;;;;;;;;;;;20.48;43.78;100964.30;105568;1286;61199;-80
2023/10/23 07:42:03;;;;;;;;;;;;;;;20.49;43.77;100962.42;105423;1288;60063;-80
2023/10/23 07:44:29;;;;;;;;;;;;;;;20.50;43.77;100963.95;105190;1286;62473;-80
2023/10/23 07:46:54;;;;;;;;;;;;;;;20.51;43.85;100963.16;105079;1288;61317;-81
2023/10/23 07:49:20;;;;;;;;;;;;;;;20.52;43.78;100962.05;105139;1288;60133;-81
2023/10/23 07:51:46;;;;;;;;;;;;;;;20.52;43.61;100954.55;105185;1288;72363;-80
2023/10/23 07:54:12;;;;;;;;;;;;;;;20.50;43.80;100951.80;105001;1286;74687;-80
2023/10/23 07:56:38;;;;;;;;;;;;;;;20.48;43.74;100954.78;105269;1286;60281;-81
2023/10/23 07:59:04;;;;;;;;;;;;;;;20.46;43.79;100956.73;105199;1291;59316;-81
2023/10/23 08:01:29;;;;;;;;;;;;;;;20.45;43.74;100960.16;104954;1287;61626;-80
2023/10/23 08:03:55;;;;;;;;;;;;;;;20.45;43.89;100960.72;105042;1288;59982;-82
2023/10/23 08:06:20;;;;;;;;;;;;;;;20.44;43.92;100960.57;104888;1288;59508;-81
2023/10/23 08:08:46;;;;;;;;;;;;;;;20.46;43.88;100959.26;105101;1289;59722;-81
2023/10/23 08:11:12;;;;;;;;;;;;;;;20.48;43.82;100960.53;104792;1288;59506;-81
2023/10/23 08:13:38;;;;;;;;;;;;;;;20.50;43.70;100960.94;104770;1291;62329;-80
2023/10/23 08:16:03;;;;;;;;;;;;;;;20.52;43.72;100960.63;104473;1289;60700;-80
2023/10/23 08:18:29;;;;;;;;;;;;;;;20.54;43.72;100960.65;104681;1288;61493;-80
2023/10/23 08:20:55;;;;;;;;;;;;;;;20.56;43.68;100962.64;104742;1288;61403;-80
2023/10/23 08:23:20;;;;;;;;;;;;;;;20.58;43.78;100962.36;105088;1288;59499;-80
2023/10/23 08:25:46;;;;;;;;;;;;;;;20.58;43.64;100961.78;104780;1287;61308;-80
2023/10/23 08:28:12;;;;;;;;;;;;;;;20.59;43.59;100958.66;104368;1293;61364;-80
2023/10/23 08:30:38;;;;;;;;;;;;;;;20.61;43.65;100955.00;104476;1288;61292;-81
2023/10/23 08:33:05;;;;;;;;;;;;;;;20.62;43.69;100955.27;104460;1288;61400;-80
2023/10/23 08:35:30;;;;;;;;;;;;;;;20.63;43.56;100957.39;104088;1288;61450;-80
2023/10/23 08:37:56;;;;;;;;;;;;;;;20.63;43.49;100955.92;104031;1288;61471;-80
2023/10/23 08:40:21;;;;;;;;;;;;;;;20.64;43.57;100954.44;104422;1288;61329;-79
2023/10/23 08:42:47;;;;;;;;;;;;;;;20.65;43.55;100953.67;104197;1288;61301;-80
2023/10/23 08:45:13;;;;;;;;;;;;;;;20.65;43.48;100953.27;103780;1288;62664;-80
2023/10/23 08:47:39;;;;;;;;;;;;;;;20.66;43.46;100957.52;103763;1288;61348;-81
2023/10/23 08:50:06;;;;;;;;;;;;;;;20.67;43.56;100954.78;103879;1291;62599;-81
2023/10/23 08:52:33;;;;;;;;;;;;;;;20.67;43.58;100954.96;104183;1289;59665;-81
2023/10/23 08:54:59;;;;;;;;;;;;;;;20.68;43.40;100952.73;104323;1288;61924;-81
2023/10/23 08:57:24;;;;;;;;;;;;;;;20.69;43.46;100951.44;103924;1287;61422;-81
2023/10/23 08:59:50;;;;;;;;;;;;;;;20.70;43.32;100952.47;103859;1288;61333;-81
2023/10/23 09:02:15;;;;;;;;;;;;;;;20.70;43.39;100952.42;104002;1289;61322;-81
2023/10/23 09:04:41;;;;;;;;;;;;;;;20.71;43.57;100948.24;103906;1293;61353;-81
2023/10/23 09:07:07;;;;;;;;;;;;;;;20.73;43.40;100949.40;104040;1287;61296;-81
2023/10/23 09:09:32;;;;;;;;;;;;;;;20.74;43.49;100947.38;104129;1288;61395;-82
2023/10/23 09:11:58;;;;;;;;;;;;;;;20.74;43.43;100951.79;104617;1292;61433;-82
2023/10/23 09:14:24;;;;;;;;;;;;;;;20.75;43.34;100955.15;104773;1288;61248;-82
2023/10/23 09:16:51;;;;;;;;;;;;;;;20.78;43.58;100953.35;104644;1288;61418;-82
2023/10/23 09:19:33;;;;;;;;;;;;;;;20.80;43.57;100947.66;104303;1287;61344;-82
2023/10/23 09:21:59;;;;;;;;;;;;;;;20.83;43.63;100949.98;104221;1288;74766;-82
2023/10/23 09:24:25;;;;;;;;;;;;;;;20.85;43.41;100949.87;103898;1288;61369;-81
2023/10/23 09:26:50;;;;;;;;;;;;;;;20.86;43.54;100953.15;104065;1293;61370;-81
2023/10/23 09:29:25;;;;;;;;;;;;;;;20.89;43.53;100950.86;104080;1288;61408;-80
2023/10/23 09:31:51;;;;;;;;;;;;;;;20.91;43.60;100948.20;104080;1288;75615;-80
2023/10/23 09:34:18;;;;;;;;;;;;;;;20.92;43.69;100946.13;104065;1288;61400;-80
2023/10/23 09:36:44;;;;;;;;;;;;;;;20.94;43.96;100943.50;103731;1288;61306;-81
2023/10/23 09:39:11;;;;;;;;;;;;;;;20.95;43.99;100942.39;103810;1288;61284;-82
2023/10/23 09:41:37;;;;;;;;;;;;;;;20.96;44.05;100940.85;103932;1287;61196;-81
2023/10/23 09:44:03;;;;;;;;;;;;;;;20.97;44.18;100941.32;103911;1290;61379;-81
2023/10/23 09:46:29;;;;;;;;;;;;;;;20.98;44.23;100938.73;103554;1288;61284;-81
2023/10/23 09:49:00;;;;;;;;;;;;;;;20.99;44.15;100940.64;103583;1288;72528;-81
2023/10/23 09:51:28;;;;;;;;;;;;;;;21.00;44.25;100939.92;104312;1292;74453;-82
2023/10/23 09:53:58;;;;;;;;;;;;;;;21.00;44.18;100939.54;104321;1288;61250;-82
2023/10/23 09:56:24;;;;;;;;;;;;;;;21.00;44.19;100937.77;103809;1287;61328;-81
2023/10/23 09:58:54;;;;;;;;;;;;;;;20.99;44.42;100935.48;103797;1288;61370;-81
2023/10/23 10:01:20;;;;;;;;;;;;;;;20.99;44.31;100935.13;103740;1287;75974;-81
2023/10/23 10:03:46;;;;;;;;;;;;;;;20.99;44.27;100936.91;103542;1288;61410;-82
2023/10/23 10:06:13;;;;;;;;;;;;;;;20.99;44.21;100933.69;103885;1288;61384;-82
2023/10/23 10:08:41;;;;;;;;;;;;;;;21.00;44.11;100929.33;104023;1288;61421;-81
2023/10/23 10:11:06;;;;;;;;;;;;;;;21.00;44.25;100927.75;103689;1293;73290;-81
2023/10/23 10:13:32;;;;;;;;;;;;;;;21.00;44.44;100925.08;103302;1288;61365;-81
2023/10/23 10:15:57;;;;;;;;;;;;;;;21.00;44.53;100924.50;103159;1288;61429;-81
2023/10/23 10:18:23;;;;;;;;;;;;;;;21.00;44.47;100921.44;103473;1288;61571;-81
2023/10/23 10:20:53;;;;;;;;;;;;;;;21.00;44.45;100918.05;103739;1292;61404;-81
2023/10/23 10:23:19;;;;;;;;;;;;;;;21.00;44.51;100919.09;103717;1289;74361;-81
2023/10/23 10:25:45;;;;;;;;;;;;;;;21.00;44.50;100918.92;103245;1291;61409;-82
2023/10/23 10:28:11;;;;;;;;;;;;;;;21.00;44.37;100914.09;103451;1292;61333;-80
2023/10/23 10:30:37;;;;;;;;;;;;;;;21.01;44.18;100915.69;103270;1290;61285;-81
2023/10/23 10:33:05;;;;;;;;;;;;;;;21.01;44.26;100912.45;103499;1287;61398;-81
2023/10/23 10:35:31;;;;;;;;;;;;;;;21.00;44.33;100910.86;103679;1291;61400;-81
2023/10/23 10:37:58;;;;;;;;;;;;;;;21.00;44.17;100910.89;103211;1288;61340;-82
2023/10/23 10:40:24;;;;;;;;;;;;;;;21.00;44.10;100907.28;103750;1287;61427;-82
2023/10/23 10:42:50;;;;;;;;;;;;;;;21.00;44.06;100907.51;103379;1293;61389;-81
2023/10/23 10:45:16;;;;;;;;;;;;;;;21.00;44.08;100911.26;103353;1288;61399;-81
2023/10/23 10:47:51;;;;;;;;;;;;;;;21.00;44.00;100909.48;103428;1288;61301;-81
2023/10/23 10:50:44;;;;;;;;;;;;;;;21.00;43.85;100915.36;103351;1288;72344;-81
2023/10/23 10:53:12;;;;;;;;;;;;;;;21.00;43.92;100913.75;103515;1288;74322;-82
2023/10/23 10:55:38;;;;;;;;;;;;;;;20.99;44.03;100912.73;103765;1288;61117;-82
2023/10/23 10:58:06;;;;;;;;;;;;;;;21.00;43.96;100909.13;103404;1288;61464;-82
2023/10/23 11:00:32;;;;;;;;;;;;;;;20.99;43.81;100903.45;103656;1290;73497;-81
2023/10/23 11:02:57;;;;;;;;;;;;;;;21.00;43.80;100902.00;103988;1287;61464;-82
2023/10/23 11:05:25;;;;;;;;;;;;;;;21.00;44.05;100899.48;103470;1287;61394;-82
2023/10/23 11:07:51;;;;;;;;;;;;;;;21.00;43.96;100896.77;103171;1291;61378;-82
2023/10/23 11:10:17;;;;;;;;;;;;;;;21.00;43.98;100895.69;103341;1293;62524;-82
2023/10/23 11:12:43;;;;;;;;;;;;;;;21.00;43.88;100895.33;103917;1288;61164;-82
2023/10/23 11:15:09;;;;;;;;;;;;;;;21.00;43.99;100890.81;103747;1288;61845;-80
2023/10/23 11:17:35;;;;;;;;;;;;;;;21.01;44.03;100886.69;103634;1290;61424;-81
2023/10/23 11:20:05;;;;;;;;;;;;;;;21.01;44.00;100888.98;103632;1288;61747;-81
2023/10/23 11:22:32;;;;;;;;;;;;;;;21.01;44.08;100881.47;103890;1289;75503;-80
2023/10/23 11:24:57;;;;;;;;;;;;;;;21.01;44.14;100874.33;103858;1287;61778;-80
2023/10/23 11:27:22;;;;;;;;;;;;;;;21.01;44.08;100868.77;103361;1288;61414;-81
2023/10/23 11:29:48;;;;;;;;;;;;;;;21.02;44.15;100866.41;103618;1291;62772;-80
2023/10/23 11:32:14;;;;;;;;;;;;;;;21.02;44.21;100866.22;103649;1291;61348;-82
2023/10/23 11:34:41;;;;;;;;;;;;;;;21.02;44.17;100865.50;103370;1290;74583;-81
2023/10/23 11:37:07;;;;;;;;;;;;;;;21.02;44.26;100862.08;103396;1288;61352;-82
2023/10/23 11:39:33;;;;;;;;;;;;;;;21.02;44.25;100861.39;103221;1289;62664;-82
2023/10/23 11:41:58;;;;;;;;;;;;;;;21.02;44.01;100860.84;103554;1291;61286;-81
2023/10/23 11:44:24;;;;;;;;;;;;;;;21.03;43.91;100857.39;104440;1288;60150;-81
2023/10/23 11:46:50;;;;;;;;;;;;;;;21.03;43.94;100856.09;104196;1289;61374;-81
2023/10/23 11:49:19;;;;;;;;;;;;;;;21.05;43.81;100855.65;104041;1289;61378;-81
2023/10/23 11:51:45;;;;;;;;;;;;;;;21.05;43.78;100849.36;104561;1288;59501;-81
2023/10/23 11:54:11;;;;;;;;;;;;;;;21.06;43.74;100846.98;103803;1289;61375;-81
2023/10/23 11:56:36;;;;;;;;;;;;;;;21.06;43.81;100844.25;104199;1289;61487;-81
2023/10/23 11:59:03;;;;;;;;;;;;;;;21.07;43.85;100847.38;104120;1289;61301;-81
2023/10/23 12:01:30;;;;;;;;;;;;;;;21.08;43.69;100847.36;104489;1288;61306;-82
2023/10/23 12:03:56;;;;;;;;;;;;;;;21.08;43.74;100849.47;104493;1288;61384;-81
2023/10/23 12:06:22;;;;;;;;;;;;;;;21.09;43.75;100848.56;104593;1289;61339;-81
2023/10/23 12:08:47;;;;;;;;;;;;;;;21.08;43.64;100850.72;104816;1287;61288;-81
2023/10/23 12:11:12;;;;;;;;;;;;;;;21.09;43.66;100849.23;105176;1288;61319;-82
2023/10/23 12:13:39;;;;;;;;;;;;;;;21.10;43.74;100850.99;104964;1286;61403;-81
2023/10/23 12:16:04;;;;;;;;;;;;;;;21.09;43.62;100850.81;104684;1289;61356;-82
2023/10/23 12:18:31;;;;;;;;;;;;;;;21.10;43.75;100854.54;104358;1289;59621;-81
2023/10/23 12:20:56;;;;;;;;;;;;;;;21.10;43.72;100854.70;104338;1289;61205;-81
2023/10/23 12:23:22;;;;;;;;;;;;;;;21.11;43.78;100853.59;104291;1293;61304;-81